Time;durP1;ratioP1;P1;durP2;ratioP2;P2;SDS_P1;SDS_P2;PMS_P1;PMS_P2;Temp;Humidity;BMP_temperature;BMP_pressure;BME280_temperature;BME280_humidity;BME280_pressure;Samples;Min_cycle;Max_cycle;Signal;HPM_P1;HPM_P2
2022/07/07 00:01:32;;;;;;;1.23;1.10;;;;;;;16.84;57.30;99007.47;4364404;32;20087;-72
2022/07/07 00:04:01;;;;;;;2.28;1.42;;;;;;;16.85;57.23;99014.38;4364491;32;20158;-72
2022/07/07 00:06:30;;;;;;;2.17;1.60;;;;;;;16.82;57.41;99012.06;4365010;32;20099;-72
2022/07/07 00:08:58;;;;;;;1.73;1.40;;;;;;;16.79;57.41;99021.19;4364502;32;20113;-72
2022/07/07 00:11:25;;;;;;;1.75;1.52;;;;;;;16.74;57.65;99012.94;4364430;32;20105;-72
2022/07/07 00:13:53;;;;;;;2.05;1.50;;;;;;;16.66;57.98;99012.97;4364592;32;20107;-72
2022/07/07 00:16:20;;;;;;;6.43;1.42;;;;;;;16.65;58.00;99014.81;4364375;32;20095;-72
2022/07/07 00:18:49;;;;;;;1.40;1.25;;;;;;;16.59;58.33;99014.62;4364368;32;20438;-72
2022/07/07 00:21:16;;;;;;;3.37;1.95;;;;;;;16.50;58.51;99017.31;4364435;32;20114;-72
2022/07/07 00:23:43;;;;;;;3.70;1.48;;;;;;;16.52;58.42;99016.31;4364430;32;20204;-72
2022/07/07 00:26:11;;;;;;;2.75;1.55;;;;;;;16.57;58.32;99014.81;4364465;32;20450;-72
2022/07/07 00:28:38;;;;;;;1.77;1.27;;;;;;;16.49;58.59;99005.09;4364488;32;20453;-72
2022/07/07 00:31:05;;;;;;;1.92;1.52;;;;;;;16.50;58.55;99008.53;4364404;32;20096;-72
2022/07/07 00:33:33;;;;;;;2.17;1.30;;;;;;;16.50;58.36;99006.75;4364329;32;20165;-72
2022/07/07 00:36:00;;;;;;;2.58;1.40;;;;;;;16.49;58.42;99004.28;4364341;32;20083;-72
2022/07/07 00:38:28;;;;;;;2.15;1.60;;;;;;;16.46;58.58;99005.41;4364310;32;20083;-72
2022/07/07 00:40:55;;;;;;;2.53;1.17;;;;;;;16.43;58.75;99008.41;4364496;32;20146;-72
2022/07/07 00:43:22;;;;;;;1.80;1.52;;;;;;;16.38;58.92;99001.97;4350909;32;20103;-72
2022/07/07 00:45:51;;;;;;;3.05;1.33;;;;;;;16.36;58.91;99002.13;4351066;32;20129;-72
2022/07/07 00:48:19;;;;;;;3.03;1.52;;;;;;;16.35;58.91;98999.66;4364337;32;20118;-72
2022/07/07 00:50:47;;;;;;;1.95;1.30;;;;;;;16.33;59.08;99002.47;4364342;32;20091;-72
2022/07/07 00:53:18;;;;;;;1.83;1.58;;;;;;;16.29;59.18;99004.63;4364638;32;20121;-72
2022/07/07 00:55:45;;;;;;;1.98;1.40;;;;;;;16.29;59.18;99004.63;4364545;32;20099;-72
2022/07/07 00:58:12;;;;;;;6.62;1.33;;;;;;;16.29;59.33;99002.00;4364227;32;20088;-72
2022/07/07 01:00:41;;;;;;;2.08;1.58;;;;;;;16.22;59.50;99000.19;4364103;32;20084;-72
2022/07/07 01:03:09;;;;;;;1.75;1.42;;;;;;;16.19;59.59;99001.34;4362907;32;20099;-72
2022/07/07 01:05:37;;;;;;;2.55;1.40;;;;;;;16.17;59.84;99002.50;4364480;32;20406;-72
2022/07/07 01:08:04;;;;;;;3.28;1.50;;;;;;;16.11;60.04;99010.13;4350729;32;20184;-72
2022/07/07 01:10:32;;;;;;;2.95;1.40;;;;;;;16.02;60.47;99004.97;4364079;32;20437;-72
2022/07/07 01:13:03;;;;;;;2.62;1.45;;;;;;;15.99;60.62;99002.69;4364093;32;20099;-72
2022/07/07 01:15:30;;;;;;;2.75;1.77;;;;;;;15.92;60.77;99002.53;4363926;32;20121;-72
2022/07/07 01:17:57;;;;;;;1.75;1.40;;;;;;;15.79;61.04;99001.22;4364039;32;20090;-72
2022/07/07 01:20:26;;;;;;;1.65;1.45;;;;;;;15.79;60.89;98995.94;4350687;32;20130;-72
2022/07/07 01:22:53;;;;;;;2.37;1.45;;;;;;;15.73;61.08;98995.72;4338504;32;20103;-72
2022/07/07 01:25:22;;;;;;;2.75;1.60;;;;;;;15.71;61.28;99001.16;4364037;32;20558;-72
2022/07/07 01:27:50;;;;;;;2.03;1.33;;;;;;;15.78;60.63;99004.84;4364140;32;20109;-72
2022/07/07 01:30:17;;;;;;;1.48;1.30;;;;;;;15.90;60.20;98997.41;4363915;32;20095;-72
2022/07/07 01:32:46;;;;;;;1.48;1.23;;;;;;;15.95;60.08;98994.28;4363589;32;20130;-72
2022/07/07 01:35:13;;;;;;;2.08;1.40;;;;;;;16.01;59.80;99004.16;4363816;32;20090;-72
2022/07/07 01:37:40;;;;;;;1.67;1.30;;;;;;;16.06;59.62;99001.84;4363732;32;20109;-72
2022/07/07 01:40:08;;;;;;;2.05;1.40;;;;;;;16.09;59.60;99000.69;4363862;32;20117;-72
2022/07/07 01:42:35;;;;;;;1.90;1.30;;;;;;;16.12;59.60;99006.50;4363845;32;20095;-72
2022/07/07 01:45:03;;;;;;;2.60;1.55;;;;;;;16.09;59.68;99012.09;4363786;32;20492;-72
2022/07/07 01:47:31;;;;;;;1.33;1.23;;;;;;;16.13;59.58;99010.75;4363621;32;20169;-72
2022/07/07 01:49:58;;;;;;;2.45;1.40;;;;;;;16.09;59.67;99006.81;4363606;32;20154;-71
2022/07/07 01:52:25;;;;;;;1.40;1.30;;;;;;;16.10;59.75;99010.28;4363687;32;20169;-72
2022/07/07 01:54:52;;;;;;;6.10;1.87;;;;;;;16.10;59.75;99003.16;4363527;32;20116;-72
2022/07/07 01:57:20;;;;;;;3.20;1.48;;;;;;;16.13;59.66;99007.31;4363505;32;20362;-72
2022/07/07 01:59:47;;;;;;;2.47;1.65;;;;;;;16.14;59.68;99009.78;4363607;32;20374;-72
2022/07/07 02:02:15;;;;;;;2.55;1.40;;;;;;;16.10;59.97;99008.44;4363355;32;20111;-72
2022/07/07 02:04:42;;;;;;;2.28;1.40;;;;;;;16.08;60.23;99005.16;4363473;32;20454;-72
2022/07/07 02:07:10;;;;;;;1.55;1.40;;;;;;;16.06;60.31;99007.12;4363457;32;20611;-72
2022/07/07 02:09:37;;;;;;;1.87;1.30;;;;;;;16.09;60.29;99001.53;4363345;32;20091;-72
2022/07/07 02:12:04;;;;;;;2.25;1.40;;;;;;;16.04;60.58;99003.84;4363305;32;20115;-72
2022/07/07 02:14:32;;;;;;;1.40;1.30;;;;;;;16.01;60.75;98998.06;4364833;32;20263;-72
2022/07/07 02:16:59;;;;;;;3.15;1.58;;;;;;;16.00;60.79;98997.22;4365176;32;20103;-72
2022/07/07 02:19:26;;;;;;;2.12;1.65;;;;;;;15.96;60.95;99004.66;4365301;32;20079;-72
2022/07/07 02:21:53;;;;;;;2.25;1.45;;;;;;;15.93;61.13;99001.53;4365154;32;20095;-72
2022/07/07 02:24:20;;;;;;;4.15;1.73;;;;;;;15.94;61.13;98997.88;4365359;32;20121;-72
2022/07/07 02:26:48;;;;;;;1.30;1.20;;;;;;;15.95;61.21;99007.47;4351889;32;20157;-72
2022/07/07 02:29:15;;;;;;;1.85;1.48;;;;;;;15.99;60.95;99008.81;4365192;32;20110;-72
2022/07/07 02:31:42;;;;;;;2.05;1.50;;;;;;;15.98;61.00;99012.44;4365114;32;20106;-72
2022/07/07 02:34:10;;;;;;;3.08;1.58;;;;;;;16.00;61.04;99018.37;4365500;32;20102;-72
2022/07/07 02:36:37;;;;;;;1.87;1.52;;;;;;;15.96;61.23;99017.06;4365264;32;20083;-72
2022/07/07 02:39:04;;;;;;;3.35;1.83;;;;;;;15.99;61.29;99019.38;4365139;32;20083;-72
2022/07/07 02:41:31;;;;;;;1.70;1.50;;;;;;;16.01;61.25;99014.75;4365184;32;20121;-72
2022/07/07 02:43:58;;;;;;;2.50;1.80;;;;;;;16.01;61.80;99013.94;4351610;32;20111;-72
2022/07/07 02:46:25;;;;;;;2.05;1.90;;;;;;;16.08;61.86;99018.37;4365159;32;20440;-72
2022/07/07 02:48:53;;;;;;;1.67;1.42;;;;;;;16.12;62.12;99022.34;4365004;32;20099;-72
2022/07/07 02:51:20;;;;;;;2.20;1.98;;;;;;;16.14;62.16;99019.53;4365020;32;20410;-72
2022/07/07 02:53:47;;;;;;;2.03;1.83;;;;;;;16.18;62.17;99020.84;4364987;32;20090;-72
2022/07/07 02:56:14;;;;;;;2.85;1.80;;;;;;;16.19;62.02;99017.19;4365062;32;20087;-72
2022/07/07 02:58:42;;;;;;;1.70;1.60;;;;;;;16.17;62.19;99023.63;4365058;32;20362;-72
2022/07/07 03:01:09;;;;;;;2.30;2.00;;;;;;;16.12;62.28;99025.00;4365021;32;20091;-72
2022/07/07 03:03:36;;;;;;;2.25;1.70;;;;;;;16.11;62.22;99023.31;4364860;32;20095;-72
2022/07/07 03:06:04;;;;;;;2.30;2.10;;;;;;;16.11;62.30;99020.69;4364887;32;20103;-72
2022/07/07 03:08:31;;;;;;;1.73;1.60;;;;;;;16.09;62.52;99021.84;4351507;32;20079;-72
2022/07/07 03:10:59;;;;;;;2.05;1.70;;;;;;;16.14;62.46;99025.63;4364915;32;20123;-72
2022/07/07 03:13:27;;;;;;;2.60;1.73;;;;;;;16.16;62.51;99020.19;4364906;32;20094;-72
2022/07/07 03:15:55;;;;;;;2.08;1.87;;;;;;;16.16;62.60;99024.66;4364882;32;20114;-72
2022/07/07 03:18:23;;;;;;;2.35;1.80;;;;;;;16.17;62.67;99016.56;4364884;32;20109;-72
2022/07/07 03:20:51;;;;;;;4.03;2.10;;;;;;;16.19;62.69;99021.69;4364932;32;20092;-72
2022/07/07 03:23:19;;;;;;;2.95;1.87;;;;;;;16.25;62.50;99011.25;4364821;32;20091;-72
2022/07/07 03:25:46;;;;;;;3.12;1.70;;;;;;;16.33;62.31;99013.03;4364069;32;20381;-72
2022/07/07 03:28:14;;;;;;;2.10;1.90;;;;;;;16.52;61.92;99016.31;4364782;32;20095;-72
2022/07/07 03:30:41;;;;;;;2.75;2.00;;;;;;;16.66;61.42;99019.06;4365051;32;20489;-72
2022/07/07 03:33:09;;;;;;;3.45;1.80;;;;;;;16.88;60.73;99021.19;4364845;32;20487;-72
2022/07/07 03:35:38;;;;;;;2.87;2.03;;;;;;;17.02;60.23;99017.84;4364787;32;20434;-72
2022/07/07 03:38:05;;;;;;;1.85;1.62;;;;;;;17.18;59.78;99019.56;4364657;32;20087;-72
2022/07/07 03:40:34;;;;;;;2.70;2.40;;;;;;;17.20;59.64;99020.22;4364783;32;20376;-72
2022/07/07 03:43:01;;;;;;;2.70;1.95;;;;;;;17.32;59.37;99024.13;4364575;32;20137;-72
2022/07/07 03:45:28;;;;;;;4.35;2.10;;;;;;;17.46;58.97;99019.91;4364734;32;20150;-73
2022/07/07 03:47:56;;;;;;;3.40;1.70;;;;;;;17.62;58.64;99020.78;4364577;32;20083;-72
2022/07/07 03:50:23;;;;;;;4.97;1.87;;;;;;;17.64;58.67;99021.44;4364648;32;20125;-72
2022/07/07 03:52:50;;;;;;;6.90;2.08;;;;;;;17.72;58.53;99027.50;4364637;32;20103;-72
2022/07/07 03:55:18;;;;;;;7.30;2.50;;;;;;;17.75;58.58;99018.37;4364694;32;20091;-72
2022/07/07 03:57:45;;;;;;;4.78;2.20;;;;;;;17.70;59.26;99026.06;4364617;32;20096;-72
2022/07/07 04:00:13;;;;;;;2.20;1.80;;;;;;;17.81;59.10;99022.16;4364649;32;20099;-72
2022/07/07 04:02:40;;;;;;;2.15;1.58;;;;;;;17.77;59.46;99021.66;4364496;32;20493;-72
2022/07/07 04:05:08;;;;;;;3.05;2.10;;;;;;;17.86;59.03;99023.25;4364662;32;20148;-72
2022/07/07 04:07:35;;;;;;;4.60;1.92;;;;;;;17.91;58.63;99023.59;4364762;32;20099;-72
2022/07/07 04:10:03;;;;;;;6.45;1.98;;;;;;;18.08;58.14;99018.97;4364504;32;20092;-72
2022/07/07 04:12:31;;;;;;;2.12;1.80;;;;;;;18.21;57.88;99017.53;4364572;32;20121;-72
2022/07/07 04:14:58;;;;;;;2.08;1.70;;;;;;;18.18;57.96;99012.56;4364462;32;20115;-72
2022/07/07 04:17:26;;;;;;;2.87;1.87;;;;;;;18.32;57.71;99008.28;4364431;32;20083;-72
2022/07/07 04:19:53;;;;;;;4.78;1.90;;;;;;;18.34;57.81;99008.97;4364623;32;20188;-72
2022/07/07 04:22:20;;;;;;;3.87;1.70;;;;;;;18.46;57.60;99010.16;4364348;32;20368;-72
2022/07/07 04:24:48;;;;;;;7.82;2.45;;;;;;;18.59;57.27;99005.03;4364479;32;20539;-72
2022/07/07 04:27:15;;;;;;;2.83;1.80;;;;;;;18.63;56.68;99006.28;4364454;32;20102;-73
2022/07/07 04:29:42;;;;;;;3.22;1.70;;;;;;;18.77;56.49;99003.81;4364531;32;20096;-72
2022/07/07 04:32:09;;;;;;;2.00;1.80;;;;;;;18.94;56.18;98992.03;4364373;32;20107;-72
2022/07/07 04:34:37;;;;;;;4.50;1.80;;;;;;;19.01;54.95;98994.75;4364468;32;20087;-72
2022/07/07 04:37:04;;;;;;;5.95;1.85;;;;;;;19.14;54.83;98991.44;4364090;32;20091;-72
2022/07/07 04:39:31;;;;;;;4.87;2.20;;;;;;;19.24;54.25;98997.28;4364325;32;20091;-72
2022/07/07 04:41:59;;;;;;;4.30;2.00;;;;;;;19.44;54.35;98997.50;4364273;32;20146;-72
2022/07/07 04:44:26;;;;;;;2.55;1.98;;;;;;;19.45;53.40;99008.94;4364571;32;20117;-73
2022/07/07 04:46:54;;;;;;;4.03;2.00;;;;;;;19.58;53.26;99002.94;4364264;32;20366;-72
2022/07/07 04:49:21;;;;;;;3.15;1.95;;;;;;;19.72;53.50;99004.69;4364310;32;20095;-72
2022/07/07 04:51:48;;;;;;;2.47;1.95;;;;;;;19.75;53.11;99006.97;4364451;32;20162;-72
2022/07/07 04:54:16;;;;;;;5.93;2.10;;;;;;;19.90;52.52;98998.97;4358066;32;20099;-72
2022/07/07 04:56:43;;;;;;;3.47;2.33;;;;;;;20.10;52.02;99000.97;4364424;32;20088;-72
2022/07/07 04:59:10;;;;;;;3.53;1.50;;;;;;;19.97;51.49;98999.84;4364232;32;20430;-72
2022/07/07 05:01:37;;;;;;;4.28;1.85;;;;;;;20.24;51.97;99012.50;4364293;32;20151;-73
2022/07/07 05:04:05;;;;;;;3.10;1.90;;;;;;;20.26;50.97;99011.31;4364105;32;20083;-72
2022/07/07 05:06:32;;;;;;;2.42;1.70;;;;;;;20.18;51.38;99006.12;4364222;32;20129;-73
2022/07/07 05:09:00;;;;;;;2.70;1.70;;;;;;;20.60;51.01;99001.69;4364070;32;20519;-72
2022/07/07 05:11:27;;;;;;;4.00;1.73;;;;;;;20.72;49.83;99010.78;4351098;32;20107;-72
2022/07/07 05:13:54;;;;;;;4.07;1.70;;;;;;;20.56;50.42;99011.09;4364063;32;20102;-72
2022/07/07 05:16:21;;;;;;;1.95;1.77;;;;;;;20.75;50.30;99009.59;4363825;32;20079;-72
2022/07/07 05:18:49;;;;;;;2.03;1.87;;;;;;;20.85;49.94;99014.56;4364087;32;20134;-72
2022/07/07 05:21:16;;;;;;;2.70;2.35;;;;;;;21.02;49.90;99017.69;4363866;32;20459;-72
2022/07/07 05:23:43;;;;;;;3.42;1.70;;;;;;;21.15;48.57;99017.75;4364085;32;20685;-72
2022/07/07 05:26:11;;;;;;;2.10;1.80;;;;;;;21.29;49.32;99013.28;4364013;32;20096;-72
2022/07/07 05:28:41;;;;;;;3.65;1.90;;;;;;;21.50;48.53;99014.16;4364333;32;20103;-72
2022/07/07 05:31:13;;;;;;;4.15;2.03;;;;;;;21.37;48.22;99013.09;4364202;32;20091;-72
2022/07/07 05:33:41;;;;;;;1.90;1.70;;;;;;;21.48;48.37;99016.19;4364182;32;20470;-72
2022/07/07 05:36:10;;;;;;;4.10;1.98;;;;;;;21.77;47.84;99013.22;4363766;32;20113;-72
2022/07/07 05:38:37;;;;;;;2.72;1.83;;;;;;;21.85;48.52;99014.00;4363850;32;20162;-72
2022/07/07 05:41:04;;;;;;;2.70;1.83;;;;;;;22.13;47.98;99020.00;4363706;32;20149;-73
2022/07/07 05:43:32;;;;;;;2.67;1.60;;;;;;;22.07;46.54;99025.31;4363574;32;20145;-72
2022/07/07 05:45:59;;;;;;;3.35;1.65;;;;;;;22.15;47.67;99028.59;4363752;32;20122;-72
2022/07/07 05:48:27;;;;;;;2.12;1.92;;;;;;;22.11;48.05;99030.03;4365419;32;20126;-73
2022/07/07 05:50:54;;;;;;;3.87;2.20;;;;;;;22.32;47.01;99025.53;4368594;32;20090;-72
2022/07/07 05:53:21;;;;;;;4.00;2.15;;;;;;;22.15;47.89;99025.94;4368608;32;20091;-72
2022/07/07 05:55:49;;;;;;;3.08;2.00;;;;;;;22.29;47.21;99025.94;4368723;32;20079;-72
2022/07/07 05:58:16;;;;;;;4.70;2.00;;;;;;;22.30;46.31;99022.22;4368438;32;20103;-72
2022/07/07 06:00:43;;;;;;;7.15;2.10;;;;;;;22.65;47.22;99030.81;4368549;32;20095;-72
2022/07/07 06:03:10;;;;;;;2.40;1.87;;;;;;;22.85;44.67;99011.25;4368360;32;20143;-73
2022/07/07 06:05:38;;;;;;;3.20;2.50;;;;;;;22.74;43.92;99026.09;4368313;32;20105;-73
2022/07/07 06:08:05;;;;;;;4.87;1.90;;;;;;;22.75;44.66;99022.34;4354904;32;20501;-72
2022/07/07 06:10:32;;;;;;;4.97;2.08;;;;;;;22.84;44.50;99017.63;4368501;32;20469;-72
2022/07/07 06:13:00;;;;;;;2.45;2.00;;;;;;;22.73;45.69;99027.09;4368565;32;20430;-73
2022/07/07 06:15:27;;;;;;;4.22;2.03;;;;;;;23.01;45.41;99026.81;4368024;32;20421;-71
2022/07/07 06:17:55;;;;;;;5.95;1.80;;;;;;;23.11;44.26;99025.56;4368188;32;20115;-73
2022/07/07 06:20:34;;;;;;;5.65;2.12;;;;;;;23.37;44.68;99021.94;4368272;32;20116;-72
2022/07/07 06:23:02;;;;;;;3.05;2.05;;;;;;;23.59;42.77;99022.44;4367944;32;20438;-73
2022/07/07 06:25:29;;;;;;;6.05;2.22;;;;;;;23.65;42.47;99026.91;4368158;32;20088;-73
2022/07/07 06:27:56;;;;;;;7.55;2.10;;;;;;;23.59;43.93;99025.09;4368003;32;20103;-73
2022/07/07 06:30:24;;;;;;;5.05;1.95;;;;;;;23.79;43.51;99024.16;4368260;32;20111;-72
2022/07/07 06:32:51;;;;;;;6.53;1.83;;;;;;;23.47;43.17;99029.50;4367986;32;20497;-73
2022/07/07 06:35:20;;;;;;;5.40;2.53;;;;;;;23.72;43.05;99029.53;4368303;32;20110;-73
2022/07/07 06:37:48;;;;;;;5.43;2.10;;;;;;;23.68;42.72;99031.84;4368038;32;20091;-73
2022/07/07 06:40:15;;;;;;;2.78;1.62;;;;;;;23.98;43.98;99022.38;4367970;32;20121;-72
2022/07/07 06:42:42;;;;;;;2.50;1.90;;;;;;;24.13;43.04;99036.25;4367734;32;20088;-73
2022/07/07 06:45:10;;;;;;;3.65;1.83;;;;;;;24.15;42.10;99026.16;4367777;32;20087;-73
2022/07/07 06:47:37;;;;;;;3.17;1.90;;;;;;;24.34;41.58;99026.19;4368142;32;20126;-73
2022/07/07 06:50:05;;;;;;;3.60;2.20;;;;;;;24.30;42.37;99030.34;4367871;32;20125;-73
2022/07/07 06:52:34;;;;;;;3.05;1.98;;;;;;;24.02;43.00;99019.03;4368099;32;20163;-72
2022/07/07 06:55:02;;;;;;;5.25;1.83;;;;;;;24.11;42.06;99032.97;4367704;32;20079;-72
2022/07/07 06:57:36;;;;;;;6.47;2.37;;;;;;;24.47;40.69;99026.06;4367741;32;20092;-73
2022/07/07 07:00:04;;;;;;;2.12;1.55;;;;;;;24.46;41.47;99029.78;4366291;32;20370;-73
2022/07/07 07:02:32;;;;;;;3.05;1.90;;;;;;;24.82;40.87;99024.69;4364734;32;20495;-72
2022/07/07 07:05:00;;;;;;;6.28;2.00;;;;;;;24.58;39.81;99022.66;4365077;32;20114;-73
2022/07/07 07:07:29;;;;;;;3.47;2.10;;;;;;;24.48;42.80;99022.31;4364919;32;20095;-73
2022/07/07 07:09:57;;;;;;;2.20;1.77;;;;;;;24.83;40.67;99029.84;4364714;32;20165;-73
2022/07/07 07:12:24;;;;;;;4.60;2.15;;;;;;;24.84;39.93;99018.06;4364683;32;20457;-73
2022/07/07 07:14:51;;;;;;;2.62;1.70;;;;;;;24.86;41.73;99021.34;4364846;32;20087;-72
2022/07/07 07:17:18;;;;;;;5.35;2.30;;;;;;;24.98;41.50;99016.03;4364788;32;20119;-72
2022/07/07 07:19:46;;;;;;;3.45;1.98;;;;;;;25.00;42.07;99018.47;4364814;32;20121;-73
2022/07/07 07:22:13;;;;;;;3.83;2.08;;;;;;;25.04;41.33;99020.53;4364789;32;20079;-72
2022/07/07 07:24:40;;;;;;;3.70;1.92;;;;;;;24.88;40.44;99015.75;4364736;32;20449;-73
2022/07/07 07:27:07;;;;;;;2.17;1.98;;;;;;;25.11;41.72;99004.34;4364738;32;20103;-73
2022/07/07 07:29:34;;;;;;;5.03;2.00;;;;;;;25.41;42.40;99008.91;4364815;32;20170;-73
2022/07/07 07:32:02;;;;;;;3.83;2.28;;;;;;;24.98;42.25;99003.47;4351582;32;20158;-73
2022/07/07 07:34:29;;;;;;;2.78;2.20;;;;;;;24.90;40.84;99002.94;4364756;32;20084;-73
2022/07/07 07:36:56;;;;;;;1.80;1.70;;;;;;;24.85;41.04;99010.84;4364830;32;20103;-73
2022/07/07 07:39:23;;;;;;;2.00;1.80;;;;;;;24.96;41.96;99008.22;4365070;32;20099;-73
2022/07/07 07:41:51;;;;;;;1.70;1.60;;;;;;;25.21;41.87;99007.31;4364539;32;20393;-73
2022/07/07 07:47:04;;;;;;;2.65;2.00;;;;;;;25.84;41.11;99016.72;4364709;32;20555;-73
2022/07/07 07:49:32;;;;;;;3.47;2.20;;;;;;;25.68;41.17;99007.47;4364738;32;20102;-73
2022/07/07 07:51:59;;;;;;;2.22;1.98;;;;;;;25.62;39.62;99010.28;4364598;32;20449;-72
2022/07/07 07:54:32;;;;;;;;;;;;;;;25.32;40.32;99014.59;4365054;32;20075;-73
2022/07/07 07:57:00;;;;;;;2.72;1.75;;;;;;;25.20;41.45;99004.84;4364636;32;20002;-73
2022/07/07 07:59:27;;;;;;;2.28;2.00;;;;;;;25.30;39.32;99014.00;4364918;32;20121;-73
2022/07/07 08:01:54;;;;;;;3.47;1.85;;;;;;;25.78;40.41;99019.50;4364508;32;20457;-73
2022/07/07 08:04:22;;;;;;;1.90;1.70;;;;;;;26.31;39.53;99013.28;4364345;32;20150;-72
2022/07/07 08:06:49;;;;;;;2.78;1.83;;;;;;;26.59;36.81;99011.75;4364594;32;20119;-72
2022/07/07 08:09:17;;;;;;;3.20;1.80;;;;;;;26.85;36.12;99010.44;4364575;32;20094;-73
2022/07/07 08:11:44;;;;;;;3.60;1.80;;;;;;;27.24;35.69;99004.47;4364041;32;20103;-73
2022/07/07 08:14:11;;;;;;;4.80;1.80;;;;;;;27.41;35.32;99010.72;4364520;32;20442;-72
2022/07/07 08:16:38;;;;;;;1.75;1.62;;;;;;;27.51;35.18;99004.72;4364276;32;20121;-73
2022/07/07 08:19:06;;;;;;;3.80;1.83;;;;;;;27.71;34.41;99003.44;4364401;32;20099;-73
2022/07/07 08:21:33;;;;;;;3.00;1.73;;;;;;;27.44;34.07;99004.84;4364734;32;20103;-73
2022/07/07 08:24:00;;;;;;;3.62;1.70;;;;;;;27.20;34.16;99004.13;4364179;32;20087;-73
2022/07/07 08:26:28;;;;;;;2.97;2.00;;;;;;;27.21;34.53;99004.94;4364409;32;20103;-73
2022/07/07 08:28:55;;;;;;;4.07;1.58;;;;;;;26.89;34.41;99006.22;4364646;32;20103;-73
2022/07/07 08:31:22;;;;;;;4.95;1.90;;;;;;;26.53;35.08;99010.00;4350740;32;20098;-73
2022/07/07 08:33:50;;;;;;;6.20;1.90;;;;;;;26.28;35.22;99013.75;4364425;32;20091;-73
2022/07/07 08:36:17;;;;;;;3.60;1.92;;;;;;;26.09;35.72;99014.94;4364320;32;20185;-73
2022/07/07 08:38:44;;;;;;;2.85;1.90;;;;;;;25.95;36.23;99011.59;4364293;32;20098;-72
2022/07/07 08:41:12;;;;;;;2.72;2.10;;;;;;;25.92;36.56;99010.22;4364398;32;20470;-73
2022/07/07 08:43:39;;;;;;;2.08;1.80;;;;;;;25.76;35.90;99008.19;4364217;32;20109;-72
2022/07/07 08:46:07;;;;;;;2.28;1.90;;;;;;;25.82;35.94;99007.28;4350966;32;20100;-73
2022/07/07 08:48:35;;;;;;;5.05;1.70;;;;;;;25.93;36.70;99006.47;4364263;32;20099;-73
2022/07/07 08:51:02;;;;;;;2.00;1.80;;;;;;;25.81;35.42;99008.31;4364338;32;20109;-73
2022/07/07 08:53:38;;;;;;;2.08;1.85;;;;;;;25.72;36.57;99004.34;4364167;32;20110;-73
2022/07/07 08:56:07;;;;;;;2.33;1.77;;;;;;;25.97;36.01;99007.63;4364308;32;20095;-73
2022/07/07 08:58:36;;;;;;;2.25;1.80;;;;;;;26.03;35.05;99003.25;4364200;32;20095;-73
2022/07/07 09:01:23;;;;;;;4.10;1.90;;;;;;;26.48;35.10;99001.81;4364327;32;20105;-73
2022/07/07 09:03:51;;;;;;;4.18;2.03;;;;;;;26.85;34.98;98994.31;4363920;32;20150;-73
2022/07/07 09:06:18;;;;;;;3.17;2.00;;;;;;;27.27;33.97;98993.22;4364224;32;20099;-73
2022/07/07 09:08:51;;;;;;;1.93;1.73;;;;;;;27.36;33.53;98990.97;4364205;32;20134;-73
2022/07/07 09:11:29;;;;;;;4.18;1.92;;;;;;;27.81;34.15;98987.44;4364122;32;20172;-73
2022/07/07 09:14:17;;;;;;;4.30;2.15;;;;;;;27.88;33.65;98979.22;4364006;32;20134;-73
2022/07/07 09:16:44;;;;;;;2.80;1.70;;;;;;;28.40;33.23;98980.78;4364234;32;20088;-73
2022/07/07 09:19:19;;;;;;;3.10;2.00;;;;;;;28.26;32.91;98983.03;4364162;32;20099;-73
2022/07/07 09:21:47;;;;;;;5.03;2.20;;;;;;;28.43;32.10;98997.25;4364139;32;20110;-73
2022/07/07 09:24:15;;;;;;;3.45;1.65;;;;;;;28.63;31.29;98991.38;4362741;32;20153;-72
2022/07/07 09:26:44;;;;;;;3.80;1.92;;;;;;;28.83;31.19;98992.69;4364015;32;20090;-73
2022/07/07 09:29:20;;;;;;;3.87;1.83;;;;;;;28.78;31.63;98996.16;4364203;32;20153;-73
2022/07/07 09:31:51;;;;;;;5.18;2.12;;;;;;;28.41;31.10;99004.00;4364229;32;20122;-73
2022/07/07 09:34:19;;;;;;;3.50;1.85;;;;;;;28.81;30.65;99003.75;4363844;32;20083;-73
2022/07/07 09:39:47;;;;;;;4.87;2.00;;;;;;;28.99;31.39;99005.31;4363840;32;20118;-73
2022/07/07 09:42:33;;;;;;;2.75;1.90;;;;;;;29.27;30.73;99005.34;4363893;32;20102;-73
2022/07/07 09:45:10;;;;;;;2.85;2.08;;;;;;;29.44;30.80;99005.25;4363597;32;20528;-73
2022/07/07 09:47:38;;;;;;;3.10;2.22;;;;;;;28.78;31.16;99001.53;4363816;32;20118;-73
2022/07/07 09:50:09;;;;;;;2.60;1.40;;;;;;;28.88;31.68;98997.34;4363585;32;20121;-74
2022/07/07 09:52:41;;;;;;;2.75;1.62;;;;;;;29.10;29.96;99002.69;4363723;32;20473;-73
2022/07/07 09:55:11;;;;;;;2.33;1.40;;;;;;;29.54;29.91;98997.25;4363703;32;20138;-73
2022/07/07 09:57:40;;;;;;;2.80;1.25;;;;;;;29.68;25.18;98992.22;4363521;32;20588;-73
2022/07/07 10:00:08;;;;;;;2.83;1.10;;;;;;;29.32;24.78;98990.00;4363537;32;20442;-73
2022/07/07 10:02:37;;;;;;;1.40;1.30;;;;;;;29.72;25.04;98986.06;4363618;32;20133;-72
2022/07/07 10:05:05;;;;;;;1.77;1.30;;;;;;;29.78;25.10;98994.19;4363675;32;20442;-73
2022/07/07 10:07:34;;;;;;;2.10;1.52;;;;;;;29.71;25.49;98991.72;4363750;32;20461;-73
2022/07/07 10:10:07;;;;;;;2.37;1.30;;;;;;;29.93;26.22;98988.13;4363364;32;20469;-73
2022/07/07 10:12:45;;;;;;;3.60;1.37;;;;;;;30.00;27.04;98981.41;4349988;32;20106;-73
2022/07/07 10:15:13;;;;;;;1.75;1.50;;;;;;;29.45;26.92;98983.41;4363404;32;20117;-73
2022/07/07 10:17:41;;;;;;;2.55;1.48;;;;;;;28.72;28.77;98980.97;4363235;32;20091;-73
2022/07/07 10:20:09;;;;;;;2.03;1.40;;;;;;;28.56;28.99;98982.63;4363249;32;20580;-73
2022/07/07 10:22:37;;;;;;;2.53;1.58;;;;;;;28.54;29.48;98978.53;4363219;32;20087;-73
2022/07/07 10:25:09;;;;;;;2.15;1.50;;;;;;;27.71;30.56;98974.63;4349732;32;20604;-73
2022/07/07 10:27:40;;;;;;;1.55;1.35;;;;;;;27.56;31.33;98985.16;4363268;32;20441;-73
2022/07/07 10:30:07;;;;;;;1.85;1.50;;;;;;;26.92;32.62;98970.78;4349899;32;20150;-73
2022/07/07 10:32:51;;;;;;;1.67;1.40;;;;;;;26.70;33.09;98986.75;4363129;32;20083;-73
2022/07/07 10:35:18;;;;;;;2.10;1.58;;;;;;;26.86;32.71;98971.75;4364375;32;20101;-73
2022/07/07 10:37:51;;;;;;;2.35;1.60;;;;;;;26.76;33.11;98973.44;4365130;32;20118;-73
2022/07/07 10:40:21;;;;;;;3.57;1.53;;;;;;;26.70;33.28;98978.69;4365161;32;20178;-73
2022/07/07 10:43:03;;;;;;;4.20;2.00;;;;;;;26.71;34.78;98980.31;4365175;32;20534;-73
2022/07/07 10:45:31;;;;;;;2.87;1.67;;;;;;;26.59;34.80;98984.88;4365059;32;20138;-73
2022/07/07 10:47:59;;;;;;;2.95;1.80;;;;;;;26.31;35.44;98983.72;4365146;32;20177;-72
2022/07/07 10:50:30;;;;;;;2.33;1.87;;;;;;;26.90;34.76;98980.97;4365097;32;20130;-73
2022/07/07 10:52:58;;;;;;;4.07;1.85;;;;;;;27.16;34.00;98977.94;4365097;32;20087;-73
2022/07/07 10:55:58;;;;;;;1.67;1.58;;;;;;;27.22;34.58;98976.97;4364846;32;20429;-73
2022/07/07 10:58:44;;;;;;;1.75;1.52;;;;;;;27.71;33.71;98969.25;4365008;32;20114;-73
2022/07/07 11:01:11;;;;;;;2.15;1.87;;;;;;;28.66;31.79;98963.09;4365189;32;20087;-73
2022/07/07 11:03:39;;;;;;;10.55;1.80;;;;;;;28.65;31.91;98966.88;4364969;32;20087;-73
2022/07/07 11:06:06;;;;;;;2.58;1.77;;;;;;;28.55;31.86;98964.00;4364984;32;20099;-73
2022/07/07 11:08:38;;;;;;;3.80;1.27;;;;;;;28.59;32.01;98960.59;4364812;32;20438;-73
2022/07/07 11:11:06;;;;;;;2.55;1.70;;;;;;;28.29;32.06;98955.59;4364962;32;20521;-73
2022/07/07 11:13:42;;;;;;;3.00;1.50;;;;;;;28.14;32.04;98958.88;4364876;32;20086;-72
2022/07/07 11:16:09;;;;;;;9.45;2.47;;;;;;;27.69;32.88;98951.72;4364710;32;20088;-72
2022/07/07 11:18:37;;;;;;;3.78;1.60;;;;;;;27.95;33.01;98952.94;4364816;32;20104;-73
2022/07/07 11:21:05;;;;;;;4.12;1.50;;;;;;;27.92;32.93;98951.53;4364879;32;20401;-73
2022/07/07 11:23:55;;;;;;;2.90;1.62;;;;;;;28.24;32.26;98952.84;4351296;32;20567;-73
2022/07/07 11:26:25;;;;;;;3.25;1.67;;;;;;;28.33;32.30;98946.75;4364933;32;20154;-73
2022/07/07 11:28:54;;;;;;;1.90;1.65;;;;;;;28.48;32.28;98942.66;4364974;32;20150;-73
2022/07/07 11:31:22;;;;;;;6.07;1.80;;;;;;;27.91;32.93;98941.03;4351508;32;20095;-72
2022/07/07 11:33:51;;;;;;;2.90;1.58;;;;;;;27.75;33.45;98939.97;4364810;32;20094;-72
2022/07/07 11:36:21;;;;;;;2.10;1.62;;;;;;;28.16;33.20;98935.19;4364656;32;20091;-73
2022/07/07 11:39:01;;;;;;;1.90;1.62;;;;;;;28.47;33.14;98938.31;4364588;32;20095;-73
2022/07/07 11:41:45;;;;;;;2.12;1.70;;;;;;;28.41;32.76;98936.63;4364831;32;20091;-72
2022/07/07 11:44:19;;;;;;;2.00;1.80;;;;;;;27.50;33.25;98926.94;4364700;32;20396;-73
2022/07/07 11:46:48;;;;;;;3.90;1.70;;;;;;;27.55;34.11;98929.69;4363979;32;20101;-73